TAF Text Data
IDs:
Format:
Raw Decoded Include METAR

Data at: 1147 UTC 25 Oct 2020

KECP 251120Z 2512/2612 00000KT 2SM BR OVC008
  TEMPO 2512/2515 1/2SM FG OVC002
  FM251600 28005KT P6SM SCT020
  FM260900 00000KT 6SM BR SCT050